createdAt,value
2018-05-08T00:00:23.570Z,91.40
2018-05-08T00:02:51.794Z,91.80
2018-05-08T00:05:20.018Z,92.20
2018-05-08T00:07:49.467Z,92.20
2018-05-08T00:10:19.190Z,92.60
2018-05-08T00:12:48.224Z,92.80
2018-05-08T00:15:17.574Z,92.70
2018-05-08T00:17:45.795Z,93.00
2018-05-08T00:20:14.075Z,93.10
2018-05-08T00:22:42.299Z,93.50
2018-05-08T00:25:10.523Z,93.50
2018-05-08T00:27:39.070Z,94.10
2018-05-08T00:30:08.424Z,94.30
2018-05-08T00:32:36.647Z,94.60
2018-05-08T00:35:04.918Z,94.70
2018-05-08T00:40:02.587Z,95.00
2018-05-08T00:42:31.241Z,95.10
2018-05-08T00:44:59.459Z,95.40
2018-05-08T00:49:57.166Z,95.90
2018-05-08T00:52:25.794Z,95.90
2018-05-08T00:55:05.951Z,96.10
2018-05-08T00:57:35.314Z,96.40
2018-05-08T01:02:33.791Z,97.20
2018-05-08T01:05:02.103Z,97.70
2018-05-08T01:07:30.659Z,97.90
2018-05-08T01:09:58.926Z,98.00
2018-05-08T01:12:28.290Z,98.10
2018-05-08T01:14:56.516Z,97.70
2018-05-08T01:17:24.767Z,98.20
2018-05-08T01:19:53.386Z,98.40
2018-05-08T01:24:51.425Z,98.50
2018-05-08T01:29:49.099Z,99.30
2018-05-08T01:32:17.376Z,99.70
2018-05-08T01:34:45.599Z,99.80
2018-05-08T01:37:13.827Z,99.90
2018-05-08T01:39:42.103Z,99.90
2018-05-08T01:42:10.331Z,99.90
2018-05-08T01:44:38.559Z,99.90
2018-05-08T01:47:06.894Z,99.90
2018-05-08T01:49:35.891Z,99.90
2018-05-08T01:52:04.121Z,99.90
2018-05-08T01:54:32.376Z,99.90
2018-05-08T01:57:02.107Z,99.90
2018-05-08T01:59:30.763Z,99.90
2018-05-08T02:01:59.414Z,99.90
2018-05-08T02:04:27.683Z,99.90
2018-05-08T02:06:56.670Z,99.90
2018-05-08T02:09:24.895Z,99.90
2018-05-08T02:11:53.163Z,99.90
2018-05-08T02:14:21.391Z,99.90
2018-05-08T02:16:49.624Z,99.90
2018-05-08T02:19:17.890Z,99.90
2018-05-08T02:21:46.116Z,99.90
2018-05-08T02:24:14.343Z,99.90
2018-05-08T02:26:43.738Z,99.90
2018-05-08T02:29:11.970Z,99.90
2018-05-08T02:31:41.011Z,99.90
2018-05-08T02:34:10.006Z,99.90
2018-05-08T02:36:38.232Z,99.90
2018-05-08T02:39:06.500Z,99.90
2018-05-08T02:41:34.731Z,99.90
2018-05-08T02:44:02.955Z,99.90
2018-05-08T02:46:31.235Z,99.90
2018-05-08T02:51:28.914Z,99.90
2018-05-08T02:53:57.181Z,99.90
2018-05-08T02:56:26.170Z,99.90
2018-05-08T02:58:55.185Z,99.90
2018-05-08T03:01:23.431Z,99.90
2018-05-08T03:03:51.660Z,99.90
2018-05-08T03:06:19.927Z,99.90
2018-05-08T03:08:48.188Z,99.90
2018-05-08T03:11:16.420Z,99.90
2018-05-08T03:16:14.153Z,99.90
2018-05-08T03:18:42.777Z,99.90
2018-05-08T03:21:11.795Z,99.90
2018-05-08T03:23:40.055Z,99.90
2018-05-08T03:26:08.283Z,99.90
2018-05-08T03:28:36.579Z,99.90
2018-05-08T03:31:06.307Z,99.90
2018-05-08T03:33:35.306Z,99.90
2018-05-08T03:36:03.738Z,99.90
2018-05-08T03:38:32.727Z,99.90
2018-05-08T03:41:00.950Z,99.90
2018-05-08T03:43:29.971Z,99.90
2018-05-08T03:45:58.967Z,99.90
2018-05-08T03:48:27.229Z,99.90
2018-05-08T03:50:55.458Z,99.90
2018-05-08T03:53:23.727Z,99.90
2018-05-08T03:55:51.958Z,99.90
2018-05-08T03:58:21.695Z,99.90
2018-05-08T04:01:01.684Z,99.90
2018-05-08T04:03:41.838Z,99.90
2018-05-08T04:09:12.203Z,99.90
2018-05-08T04:11:40.471Z,99.90
2018-05-08T04:14:08.699Z,99.90
2018-05-08T04:16:37.690Z,99.90
2018-05-08T04:19:07.467Z,99.90
2018-05-08T04:21:35.686Z,99.90
2018-05-08T04:26:33.412Z,99.90
2018-05-08T04:29:01.815Z,99.90
2018-05-08T04:31:30.047Z,99.90
2018-05-08T04:33:58.491Z,99.90
2018-05-08T04:36:27.487Z,99.90
2018-05-08T04:38:55.706Z,99.90
2018-05-08T04:41:24.407Z,99.90
2018-05-08T04:43:52.630Z,99.90
2018-05-08T04:46:21.991Z,99.90
2018-05-08T04:48:50.279Z,99.90
2018-05-08T04:51:19.271Z,99.90
2018-05-08T04:53:47.907Z,99.90
2018-05-08T04:56:16.199Z,99.90
2018-05-08T04:58:44.422Z,99.90
2018-05-08T05:01:12.655Z,99.90
2018-05-08T05:03:40.926Z,99.90
2018-05-08T05:06:09.538Z,99.90
2018-05-08T05:08:37.763Z,99.90
2018-05-08T05:11:06.118Z,99.90
2018-05-08T05:13:35.026Z,99.90
2018-05-08T05:16:04.018Z,99.90
2018-05-08T05:18:32.287Z,99.90
2018-05-08T05:21:01.280Z,99.90
2018-05-08T05:23:29.503Z,99.90
2018-05-08T05:25:57.775Z,99.90
2018-05-08T05:28:26.007Z,99.90
2018-05-08T05:30:54.311Z,99.90
2018-05-08T05:33:22.498Z,99.90
2018-05-08T05:35:50.726Z,99.90
2018-05-08T05:38:18.955Z,99.90
2018-05-08T05:40:48.803Z,99.90
2018-05-08T05:43:18.179Z,99.90
2018-05-08T05:45:46.854Z,99.90
2018-05-08T05:48:15.078Z,99.90
2018-05-08T05:50:43.302Z,99.90
2018-05-08T05:53:11.618Z,99.90
2018-05-08T05:55:39.783Z,99.90
2018-05-08T05:58:08.002Z,99.90
2018-05-08T06:00:36.287Z,99.90
2018-05-08T06:03:05.277Z,99.90
2018-05-08T06:05:34.262Z,99.90
2018-05-08T06:08:02.541Z,99.90
2018-05-08T06:10:31.531Z,99.90
2018-05-08T06:12:59.763Z,99.90
2018-05-08T06:15:28.086Z,99.90
2018-05-08T06:17:56.316Z,99.90
2018-05-08T06:20:24.552Z,99.90
2018-05-08T06:22:52.850Z,99.90
2018-05-08T06:25:21.085Z,99.90
2018-05-08T06:27:49.311Z,99.90
2018-05-08T06:30:18.363Z,99.90
2018-05-08T06:32:46.611Z,99.90
2018-05-08T06:35:14.830Z,99.90
2018-05-08T06:37:44.602Z,99.90
2018-05-08T06:40:12.827Z,99.90
2018-05-08T06:42:41.054Z,99.90
2018-05-08T06:45:09.334Z,99.90
2018-05-08T06:47:37.563Z,99.90
2018-05-08T06:50:06.555Z,99.90
2018-05-08T06:52:35.595Z,99.90
2018-05-08T06:55:03.819Z,99.90
2018-05-08T06:57:32.811Z,99.90
2018-05-08T07:00:02.587Z,99.90
2018-05-08T07:02:30.815Z,99.90
2018-05-08T07:04:59.034Z,99.90
2018-05-08T07:07:27.311Z,99.90
2018-05-08T07:09:56.674Z,99.90
2018-05-08T07:12:24.899Z,99.90
2018-05-08T07:14:54.673Z,99.90
2018-05-08T07:17:22.892Z,99.90
2018-05-08T07:19:51.168Z,99.90
2018-05-08T07:22:19.419Z,99.90
2018-05-08T07:24:47.647Z,99.90
2018-05-08T07:27:15.910Z,99.90
2018-05-08T07:29:44.135Z,99.90
2018-05-08T07:32:13.175Z,99.90
2018-05-08T07:34:41.427Z,99.90
2018-05-08T07:37:09.656Z,99.90
2018-05-08T07:42:07.771Z,97.70
2018-05-08T07:44:36.008Z,98.10
2018-05-08T07:47:05.783Z,96.40
2018-05-08T07:49:34.411Z,92.30
2018-05-08T07:52:02.637Z,93.80
2018-05-08T07:54:30.914Z,91.00
2018-05-08T07:56:59.143Z,91.10
2018-05-08T07:59:28.511Z,91.30
2018-05-08T08:01:56.771Z,90.70
2018-05-08T08:04:24.997Z,86.50
2018-05-08T08:06:53.252Z,86.10
2018-05-08T08:09:21.510Z,86.90
2018-05-08T08:11:51.238Z,82.40
2018-05-08T08:14:19.499Z,82.30
2018-05-08T08:16:47.840Z,82.50
2018-05-08T08:21:45.515Z,82.30
2018-05-08T08:24:13.790Z,85.00
2018-05-08T08:26:42.014Z,84.30
2018-05-08T08:29:10.239Z,84.10
2018-05-08T08:31:38.511Z,82.40
2018-05-08T08:34:06.747Z,79.60
2018-05-08T08:36:36.139Z,79.30
2018-05-08T08:39:05.171Z,79.60
2018-05-08T08:41:33.403Z,80.30
2018-05-08T08:44:02.390Z,77.90
2018-05-08T08:46:30.652Z,83.80
2018-05-08T08:48:58.872Z,76.70
2018-05-08T08:51:27.128Z,78.10
2018-05-08T08:53:56.859Z,74.80
2018-05-08T08:56:25.521Z,75.10
2018-05-08T08:58:53.750Z,75.80
2018-05-08T09:01:21.971Z,75.40
2018-05-08T09:03:51.373Z,74.00
2018-05-08T09:06:19.586Z,74.20
2018-05-08T09:08:48.588Z,77.60
2018-05-08T09:13:46.319Z,73.10
2018-05-08T09:18:44.059Z,73.80
2018-05-08T09:21:12.678Z,67.40
2018-05-08T09:23:40.948Z,65.50
2018-05-08T09:26:09.937Z,65.30
2018-05-08T09:28:38.186Z,63.30
2018-05-08T09:31:06.614Z,55.40
2018-05-08T09:36:04.286Z,55.40
2018-05-08T09:38:33.849Z,56.60
2018-05-08T09:41:03.672Z,74.60
2018-05-08T09:43:31.846Z,56.00
2018-05-08T09:46:00.071Z,58.20
2018-05-08T09:48:29.436Z,60.70
2018-05-08T09:50:58.490Z,61.70
2018-05-08T09:53:27.475Z,62.00
2018-05-08T09:55:56.462Z,61.60
2018-05-08T09:58:25.876Z,62.70
2018-05-08T10:00:54.128Z,59.50
2018-05-08T10:03:22.323Z,63.10
2018-05-08T10:08:20.039Z,54.40
2018-05-08T10:10:48.296Z,57.20
2018-05-08T10:13:17.311Z,58.20
2018-05-08T10:15:45.543Z,59.70
2018-05-08T10:18:15.279Z,59.80
2018-05-08T10:20:43.572Z,57.20
2018-05-08T10:23:11.778Z,57.90
2018-05-08T10:25:41.142Z,55.20
2018-05-08T10:30:39.298Z,55.50
2018-05-08T10:33:07.566Z,53.30
2018-05-08T10:35:36.565Z,52.70
2018-05-08T10:38:06.355Z,54.30
2018-05-08T10:40:34.623Z,50.50
2018-05-08T10:43:02.890Z,54.00
2018-05-08T10:48:00.558Z,50.90
2018-05-08T10:50:28.851Z,51.60
2018-05-08T10:52:57.083Z,53.90
2018-05-08T10:55:25.302Z,52.00
2018-05-08T11:00:24.526Z,53.40
2018-05-08T11:02:52.747Z,53.50
2018-05-08T11:05:21.408Z,53.90
2018-05-08T11:07:49.627Z,53.50
2018-05-08T11:10:17.935Z,52.10
2018-05-08T11:12:46.163Z,53.00
2018-05-08T11:15:15.151Z,55.50
2018-05-08T11:17:43.415Z,54.50
2018-05-08T11:20:11.644Z,53.00
2018-05-08T11:22:39.875Z,46.30
2018-05-08T11:25:08.182Z,45.90
2018-05-08T11:30:06.626Z,47.60
2018-05-08T11:32:34.895Z,48.40
2018-05-08T11:35:04.259Z,50.20
2018-05-08T11:37:32.487Z,49.00
2018-05-08T11:40:00.762Z,48.00
2018-05-08T11:42:28.983Z,49.60
2018-05-08T11:44:57.212Z,49.80
2018-05-08T11:47:26.674Z,50.90
2018-05-08T11:49:54.998Z,46.90
2018-05-08T11:52:23.891Z,51.30
2018-05-08T11:54:53.708Z,48.60
2018-05-08T11:57:21.939Z,49.10
2018-05-08T11:59:50.158Z,46.30
2018-05-08T12:02:19.574Z,49.40
2018-05-08T12:04:47.791Z,45.40
2018-05-08T12:07:17.518Z,45.90
2018-05-08T12:12:15.629Z,46.60
2018-05-08T12:14:43.920Z,44.30
2018-05-08T12:17:12.890Z,47.60
2018-05-08T12:22:10.576Z,46.70
2018-05-08T12:24:38.860Z,45.40
2018-05-08T12:27:07.079Z,46.60
2018-05-08T12:29:35.302Z,47.00
2018-05-08T12:32:05.083Z,47.60
2018-05-08T12:34:33.315Z,48.80
2018-05-08T12:39:31.491Z,46.80
2018-05-08T12:42:01.242Z,47.40
2018-05-08T12:44:30.240Z,45.90
2018-05-08T12:46:59.279Z,50.30
2018-05-08T12:51:57.719Z,44.80
2018-05-08T12:54:26.761Z,46.40
2018-05-08T12:56:55.743Z,45.90
2018-05-08T12:59:23.971Z,45.70
2018-05-08T13:01:52.232Z,48.10
2018-05-08T13:04:20.467Z,46.00
2018-05-08T13:06:48.751Z,46.70
2018-05-08T13:09:18.482Z,47.20
2018-05-08T13:11:46.702Z,49.20
2018-05-08T13:16:44.814Z,45.90
2018-05-08T13:19:13.039Z,48.20
2018-05-08T13:21:42.843Z,48.90
2018-05-08T13:26:41.282Z,46.30
2018-05-08T13:29:09.539Z,46.70
2018-05-08T13:31:37.754Z,46.70
2018-05-08T13:34:06.027Z,47.80
2018-05-08T13:36:35.773Z,47.20
2018-05-08T13:39:05.683Z,48.10
2018-05-08T13:44:03.804Z,46.80
2018-05-08T13:46:32.188Z,46.10
2018-05-08T13:49:00.458Z,48.40
2018-05-08T13:53:59.280Z,48.60
2018-05-08T13:56:31.403Z,50.20
2018-05-08T14:01:29.083Z,48.00
2018-05-08T14:03:57.358Z,46.70
2018-05-08T14:06:27.083Z,48.30
2018-05-08T14:08:55.306Z,49.10
2018-05-08T14:11:23.563Z,48.20
2018-05-08T14:13:53.295Z,48.90
2018-05-08T14:16:22.314Z,52.10
2018-05-08T14:18:52.064Z,49.90
2018-05-08T14:21:21.426Z,52.20
2018-05-08T14:23:49.643Z,52.70
2018-05-08T14:26:17.927Z,52.70
2018-05-08T14:28:46.154Z,52.40
2018-05-08T14:31:14.375Z,54.60
2018-05-08T14:36:12.098Z,51.80
2018-05-08T14:38:40.319Z,53.70
2018-05-08T14:41:09.342Z,52.40
2018-05-08T14:43:37.655Z,49.70
2018-05-08T14:46:06.571Z,48.40
2018-05-08T14:48:34.856Z,49.60
2018-05-08T14:51:03.852Z,50.70
2018-05-08T14:53:32.079Z,51.10
2018-05-08T14:56:01.115Z,50.60
2018-05-08T14:58:29.351Z,49.00
2018-05-08T15:00:57.567Z,50.10
2018-05-08T15:03:25.892Z,51.30
2018-05-08T15:05:54.115Z,48.50
2018-05-08T15:08:22.341Z,48.30
2018-05-08T15:10:51.742Z,49.60
2018-05-08T15:13:19.970Z,47.20
2018-05-08T15:15:48.203Z,50.70
2018-05-08T15:18:16.462Z,50.50
2018-05-08T15:20:44.691Z,48.50
2018-05-08T15:23:12.920Z,51.10
2018-05-08T15:25:42.324Z,52.90
2018-05-08T15:28:10.556Z,49.10
2018-05-08T15:30:39.547Z,50.60
2018-05-08T15:33:07.848Z,48.50
2018-05-08T15:35:36.855Z,46.60
2018-05-08T15:38:05.080Z,48.20
2018-05-08T15:40:33.344Z,47.10
2018-05-08T15:43:01.570Z,46.90
2018-05-08T15:45:29.799Z,48.20
2018-05-08T15:50:27.543Z,49.40
2018-05-08T15:55:26.762Z,52.20
2018-05-08T15:57:55.755Z,52.70
2018-05-08T16:00:24.755Z,54.60
2018-05-08T16:02:54.175Z,54.50
2018-05-08T16:05:23.167Z,53.30
2018-05-08T16:07:51.402Z,53.80
2018-05-08T16:10:20.454Z,54.00
2018-05-08T16:12:49.799Z,53.10
2018-05-08T16:15:18.806Z,51.40
2018-05-08T16:17:47.879Z,53.20
2018-05-08T16:22:47.863Z,54.00
2018-05-08T16:25:16.127Z,54.10
2018-05-08T16:27:44.376Z,53.10
2018-05-08T16:30:13.430Z,53.00
2018-05-08T16:32:41.647Z,53.60
2018-05-08T16:35:09.887Z,54.30
2018-05-08T16:37:39.666Z,54.00
2018-05-08T16:40:07.891Z,55.30
2018-05-08T16:42:36.884Z,55.20
2018-05-08T16:45:06.002Z,54.00
2018-05-08T16:47:34.226Z,55.10
2018-05-08T16:50:02.455Z,55.50
2018-05-08T16:52:30.723Z,55.30
2018-05-08T16:54:59.170Z,55.10
2018-05-08T16:57:27.175Z,56.10
2018-05-08T16:59:56.943Z,56.40
2018-05-08T17:02:25.166Z,56.70
2018-05-08T17:04:53.458Z,55.80
2018-05-08T17:07:21.746Z,56.00
2018-05-08T17:09:51.024Z,56.00
2018-05-08T17:12:20.011Z,56.00
2018-05-08T17:14:48.295Z,55.80
2018-05-08T17:17:16.519Z,55.70
2018-05-08T17:19:45.512Z,56.20
2018-05-08T17:22:13.795Z,56.10
2018-05-08T17:24:42.796Z,57.20
2018-05-08T17:27:11.019Z,58.60
2018-05-08T17:29:40.045Z,59.10
2018-05-08T17:32:08.262Z,58.20
2018-05-08T17:34:37.297Z,58.50
2018-05-08T17:37:06.298Z,58.40
2018-05-08T17:39:34.527Z,57.90
2018-05-08T17:42:02.802Z,57.50
2018-05-08T17:44:31.032Z,57.80
2018-05-08T17:46:59.270Z,57.80
2018-05-08T17:49:27.546Z,57.80
2018-05-08T17:54:25.276Z,57.10
2018-05-08T17:56:54.331Z,57.30
2018-05-08T18:01:52.280Z,56.60
2018-05-08T18:04:21.082Z,57.20
2018-05-08T18:06:50.432Z,57.60
2018-05-08T18:09:18.667Z,56.80
2018-05-08T18:11:48.071Z,56.70
2018-05-08T18:14:16.307Z,56.80
2018-05-08T18:16:46.194Z,56.90
2018-05-08T18:19:15.399Z,56.80
2018-05-08T18:21:44.383Z,56.90
2018-05-08T18:24:12.612Z,57.20
2018-05-08T18:26:40.871Z,57.20
2018-05-08T18:29:09.146Z,57.00
2018-05-08T18:31:37.393Z,56.90
2018-05-08T18:34:06.036Z,57.30
2018-05-08T18:36:35.803Z,58.00
2018-05-08T18:39:04.105Z,58.20
2018-05-08T18:41:32.331Z,59.40
2018-05-08T18:44:01.440Z,60.70
2018-05-08T18:46:29.592Z,61.70
2018-05-08T18:48:57.825Z,64.20
2018-05-08T18:51:26.097Z,66.20
2018-05-08T18:53:54.319Z,66.10
2018-05-08T18:56:22.600Z,67.90
2018-05-08T19:01:21.136Z,67.70
2018-05-08T19:03:50.206Z,68.70
2018-05-08T19:06:18.411Z,69.70
2018-05-08T19:11:22.093Z,70.90
2018-05-08T19:13:50.713Z,71.70
2018-05-08T19:18:54.452Z,71.20
2018-05-08T19:21:23.082Z,70.00
2018-05-08T19:23:57.180Z,68.10
2018-05-08T19:26:25.416Z,67.80
2018-05-08T19:28:59.283Z,69.70
2018-05-08T19:31:27.511Z,69.60
2018-05-08T19:33:55.743Z,71.40
2018-05-08T19:36:29.775Z,70.50
2018-05-08T19:38:57.995Z,71.70
2018-05-08T19:41:26.223Z,71.30
2018-05-08T19:43:54.497Z,71.00
2018-05-08T19:48:52.167Z,73.30
2018-05-08T19:51:20.430Z,74.10
2018-05-08T19:53:48.696Z,75.00
2018-05-08T19:56:17.695Z,75.80
2018-05-08T19:58:46.745Z,75.30
2018-05-08T20:01:15.744Z,75.70
2018-05-08T20:03:43.968Z,76.30
2018-05-08T20:08:41.712Z,76.50
2018-05-08T20:11:11.423Z,77.10
2018-05-08T20:16:09.531Z,79.10
2018-05-08T20:18:37.760Z,79.60
2018-05-08T20:21:06.030Z,79.90
2018-05-08T20:23:34.256Z,80.40
2018-05-08T20:26:02.481Z,80.90
2018-05-08T20:28:30.747Z,81.30
2018-05-08T20:31:00.111Z,81.10
2018-05-08T20:33:28.339Z,81.20
2018-05-08T20:35:56.607Z,82.90
2018-05-08T20:38:24.828Z,82.10
2018-05-08T20:40:53.065Z,82.40
2018-05-08T20:43:21.314Z,84.50
2018-05-08T20:45:51.051Z,84.70
2018-05-08T20:48:19.319Z,84.60
2018-05-08T20:50:49.598Z,85.80
2018-05-08T20:53:19.362Z,85.80
2018-05-08T20:55:47.619Z,86.30
2018-05-08T20:58:15.847Z,86.00
2018-05-08T21:00:45.676Z,86.80
2018-05-08T21:03:13.904Z,86.50
2018-05-08T21:05:42.527Z,86.60
2018-05-08T21:08:10.799Z,87.30
2018-05-08T21:10:39.791Z,86.00
2018-05-08T21:13:08.024Z,85.60
2018-05-08T21:15:36.299Z,87.30
2018-05-08T21:18:04.804Z,87.70
2018-05-08T21:20:34.512Z,88.40
2018-05-08T21:23:03.543Z,80.60
2018-05-08T21:25:32.544Z,75.50
2018-05-08T21:28:06.560Z,75.00
2018-05-08T21:30:40.639Z,73.70
2018-05-08T21:33:08.870Z,72.40
2018-05-08T21:35:37.103Z,70.80
2018-05-08T21:38:05.340Z,69.70
2018-05-08T21:40:34.383Z,70.50
2018-05-08T21:43:03.382Z,69.20
2018-05-08T21:45:31.615Z,68.60
2018-05-08T21:50:29.747Z,67.40
2018-05-08T21:55:27.859Z,67.20
2018-05-08T21:57:56.102Z,67.10
2018-05-08T22:00:25.090Z,67.90
2018-05-08T22:02:53.427Z,67.30
2018-05-08T22:05:22.427Z,67.00
2018-05-08T22:10:21.731Z,66.20
2018-05-08T22:12:50.724Z,66.30
2018-05-08T22:15:18.947Z,66.00
2018-05-08T22:17:47.229Z,65.10
2018-05-08T22:22:45.319Z,65.50
2018-05-08T22:25:14.370Z,66.30
2018-05-08T22:27:43.385Z,67.80
2018-05-08T22:30:11.598Z,69.20
2018-05-08T22:32:39.870Z,65.70
2018-05-08T22:37:38.027Z,64.10
2018-05-08T22:40:06.651Z,64.20
2018-05-08T22:42:34.898Z,65.30
2018-05-08T22:45:04.322Z,68.60
2018-05-08T22:47:32.545Z,65.80
2018-05-08T22:50:00.770Z,69.30
2018-05-08T22:52:30.557Z,70.90
2018-05-08T22:54:58.783Z,66.90
2018-05-08T22:57:27.047Z,68.60
2018-05-08T23:02:25.130Z,67.30
2018-05-08T23:04:53.471Z,67.10
2018-05-08T23:07:21.699Z,67.40
2018-05-08T23:09:49.927Z,66.70
2018-05-08T23:12:18.207Z,67.10
2018-05-08T23:14:46.436Z,67.10
2018-05-08T23:17:14.658Z,67.30
2018-05-08T23:19:43.691Z,68.00
2018-05-08T23:22:11.928Z,68.60
2018-05-08T23:24:40.154Z,69.00
2018-05-08T23:27:08.419Z,69.60
2018-05-08T23:29:36.642Z,70.10
2018-05-08T23:32:05.326Z,70.70
2018-05-08T23:34:34.311Z,71.40
2018-05-08T23:37:03.307Z,72.80
2018-05-08T23:39:31.570Z,72.70
2018-05-08T23:41:59.794Z,72.70
2018-05-08T23:44:29.532Z,73.30
2018-05-08T23:46:58.939Z,73.20
2018-05-08T23:49:27.559Z,73.60
2018-05-08T23:51:55.788Z,73.90
2018-05-08T23:54:24.064Z,74.10
2018-05-08T23:56:52.295Z,74.70
2018-05-08T23:59:22.029Z,74.80
